createdAt,value
2023-01-28T00:04:42.268Z,0.20
2023-01-28T00:09:29.218Z,0.20
2023-01-28T00:14:49.858Z,0.10
2023-01-28T00:19:37.171Z,0.00
2023-01-28T00:24:27.336Z,0.00
2023-01-28T00:29:14.060Z,-0.10
2023-01-28T00:34:02.695Z,-0.10
2023-01-28T00:39:04.158Z,-0.20
2023-01-28T00:43:57.112Z,-0.10
2023-01-28T00:48:42.175Z,-0.20
2023-01-28T00:53:31.042Z,-0.20
2023-01-28T00:58:17.500Z,-0.30
2023-01-28T01:03:07.320Z,-0.20
2023-01-28T01:07:53.972Z,-0.10
2023-01-28T01:12:45.474Z,-0.20
2023-01-28T01:17:31.841Z,-0.20
2023-01-28T01:22:19.040Z,-0.20
2023-01-28T01:27:06.464Z,-0.20
2023-01-28T01:32:40.711Z,-0.20
2023-01-28T01:37:32.550Z,-0.10
2023-01-28T01:42:21.832Z,-0.10
2023-01-28T01:47:06.997Z,-0.10
2023-01-28T01:52:08.398Z,-0.20
2023-01-28T01:56:59.299Z,-0.30
2023-01-28T02:01:46.919Z,-0.30
2023-01-28T02:06:35.202Z,-0.30
2023-01-28T02:11:37.419Z,-0.30
2023-01-28T02:16:31.269Z,-0.10
2023-01-28T02:22:00.464Z,-0.30
2023-01-28T02:27:18.004Z,-0.20
2023-01-28T02:32:28.659Z,-0.30
2023-01-28T02:37:17.507Z,-0.30
2023-01-28T02:42:08.077Z,-0.30
2023-01-28T02:47:35.107Z,-0.20
2023-01-28T02:53:02.289Z,-0.20
2023-01-28T02:58:06.365Z,-0.10
2023-01-28T03:03:06.690Z,-0.20
2023-01-28T03:07:54.374Z,-0.30
2023-01-28T03:13:00.106Z,-0.20
2023-01-28T03:18:06.232Z,-0.30
2023-01-28T03:23:20.494Z,-0.40
2023-01-28T03:28:31.960Z,-0.40
2023-01-28T03:33:51.236Z,-0.50
2023-01-28T03:38:51.421Z,-0.50
2023-01-28T03:43:37.725Z,-0.70
2023-01-28T03:48:27.121Z,-0.60
2023-01-28T03:53:16.357Z,-0.60
2023-01-28T03:58:19.176Z,-0.70
2023-01-28T04:03:21.162Z,-0.70
2023-01-28T04:08:26.993Z,-0.70
2023-01-28T04:30:14.763Z,-0.80
2023-01-28T04:35:53.547Z,-0.90
2023-01-28T04:41:30.526Z,-1.10
2023-01-28T04:47:15.405Z,-1.20
2023-01-28T04:59:20.929Z,-1.30
2023-01-28T05:04:22.426Z,-1.30
2023-01-28T05:09:23.132Z,-1.40
2023-01-28T05:14:45.537Z,-1.60
2023-01-28T05:19:52.626Z,-1.90
2023-01-28T05:24:56.274Z,-1.90
2023-01-28T05:30:02.637Z,-2.00
2023-01-28T05:35:02.201Z,-2.00
2023-01-28T05:39:48.589Z,-2.00
2023-01-28T05:44:36.745Z,-2.10
2023-01-28T05:49:41.856Z,-2.10
2023-01-28T05:54:45.122Z,-2.10
2023-01-28T05:59:33.351Z,-2.00
2023-01-28T06:04:21.213Z,-2.00
2023-01-28T06:09:57.657Z,-2.00
2023-01-28T06:14:50.365Z,-2.00
2023-01-28T06:20:17.649Z,-2.10
2023-01-28T06:25:14.012Z,-2.10
2023-01-28T06:29:59.093Z,-2.20
2023-01-28T06:34:44.119Z,-2.10
2023-01-28T06:39:33.490Z,-2.20
2023-01-28T06:44:23.792Z,-2.20
2023-01-28T06:49:22.996Z,-2.30
2023-01-28T06:54:15.806Z,-2.20
2023-01-28T06:59:06.019Z,-2.30
2023-01-28T07:03:51.312Z,-2.20
2023-01-28T07:08:35.795Z,-2.40
2023-01-28T07:13:24.650Z,-2.40
2023-01-28T07:18:29.448Z,-2.40
2023-01-28T07:23:33.272Z,-2.40
2023-01-28T07:28:22.463Z,-2.30
2023-01-28T07:33:09.718Z,-2.20
2023-01-28T07:37:59.092Z,-2.20
2023-01-28T07:42:45.234Z,-2.20
2023-01-28T07:47:33.270Z,-2.00
2023-01-28T07:52:23.262Z,-2.10
2023-01-28T07:57:11.007Z,-2.10
2023-01-28T08:01:59.423Z,-2.10
2023-01-28T08:06:43.613Z,-2.10
2023-01-28T08:11:33.836Z,-2.10
2023-01-28T08:16:21.527Z,-2.00
2023-01-28T08:21:09.914Z,-2.00
2023-01-28T08:25:56.607Z,-2.00
2023-01-28T08:30:48.942Z,-1.90
2023-01-28T08:35:34.999Z,-2.00
2023-01-28T08:40:22.474Z,-1.90
2023-01-28T08:45:09.805Z,-1.80
2023-01-28T08:49:57.576Z,-2.00
2023-01-28T08:54:45.772Z,-1.80
2023-01-28T08:59:31.989Z,-1.80
2023-01-28T09:04:23.289Z,-1.60
2023-01-28T09:09:08.637Z,-1.70
2023-01-28T09:14:01.586Z,-1.70
2023-01-28T09:18:49.341Z,-1.70
2023-01-28T09:23:35.151Z,-1.60
2023-01-28T09:28:19.560Z,-1.50
2023-01-28T09:33:09.142Z,-1.40
2023-01-28T09:38:00.302Z,-1.30
2023-01-28T09:43:04.836Z,-1.30
2023-01-28T09:47:52.872Z,-1.30
2023-01-28T09:52:41.528Z,-1.00
2023-01-28T09:57:38.876Z,-0.90
2023-01-28T10:03:00.569Z,-1.00
2023-01-28T10:08:18.792Z,-1.10
2023-01-28T10:13:25.402Z,-1.00
2023-01-28T10:18:18.075Z,-1.00
2023-01-28T10:23:22.131Z,-1.00
2023-01-28T10:28:19.475Z,-1.00
2023-01-28T10:33:23.838Z,-1.10
2023-01-28T10:38:15.860Z,-1.10
2023-01-28T10:42:59.747Z,-1.20
2023-01-28T10:47:54.270Z,-1.30
2023-01-28T10:52:40.062Z,-1.50
2023-01-28T10:57:24.162Z,-1.50
2023-01-28T11:02:33.085Z,-1.60
2023-01-28T11:07:20.928Z,-1.50
2023-01-28T11:12:26.322Z,-1.40
2023-01-28T11:17:27.345Z,-1.50
2023-01-28T11:22:33.037Z,-1.50
2023-01-28T11:27:20.060Z,-1.50
2023-01-28T11:32:04.820Z,-1.40
2023-01-28T11:36:53.123Z,-1.40
2023-01-28T11:41:40.298Z,-1.40
2023-01-28T11:46:57.957Z,-1.50
2023-01-28T11:51:49.749Z,-1.50
2023-01-28T11:57:08.639Z,-1.50
2023-01-28T12:02:16.194Z,-1.50
2023-01-28T12:07:31.551Z,-1.50
2023-01-28T12:13:08.667Z,-1.60
2023-01-28T12:18:15.910Z,-1.50
2023-01-28T12:23:36.439Z,-1.30
2023-01-28T12:28:34.941Z,-1.20
2023-01-28T12:33:55.245Z,-1.30
2023-01-28T12:39:02.203Z,-1.30
2023-01-28T12:44:07.857Z,-1.20
2023-01-28T12:48:56.581Z,-1.20
2023-01-28T12:53:54.859Z,-1.30
2023-01-28T12:59:06.193Z,-1.20
2023-01-28T13:04:18.629Z,-1.10
2023-01-28T13:09:26.350Z,-1.10
2023-01-28T13:14:16.939Z,-0.90
2023-01-28T13:19:18.584Z,-0.90
2023-01-28T13:24:19.602Z,-0.80
2023-01-28T13:29:26.179Z,-1.00
2023-01-28T13:34:31.589Z,-0.90
2023-01-28T13:39:37.563Z,-0.90
2023-01-28T13:44:37.087Z,-0.80
2023-01-28T13:49:43.616Z,-1.10
2023-01-28T13:54:32.485Z,-1.10
2023-01-28T13:59:47.511Z,-1.20
2023-01-28T14:05:07.627Z,-1.20
2023-01-28T14:10:27.348Z,-1.20
2023-01-28T14:20:58.021Z,-1.40
2023-01-28T14:25:59.241Z,-1.40
2023-01-28T14:31:14.122Z,-1.40
2023-01-28T14:36:22.249Z,-1.50
2023-01-28T14:41:30.123Z,-1.60
2023-01-28T14:46:33.327Z,-1.60
2023-01-28T14:52:21.179Z,-1.70
2023-01-28T14:57:39.233Z,-1.80
2023-01-28T15:02:42.483Z,-1.70
2023-01-28T15:07:38.131Z,-1.80
2023-01-28T15:12:43.951Z,-1.80
2023-01-28T15:17:31.048Z,-1.90
2023-01-28T15:22:56.874Z,-2.00
2023-01-28T15:27:41.720Z,-1.90
2023-01-28T15:32:30.374Z,-1.90
2023-01-28T15:37:33.833Z,-2.00
2023-01-28T15:42:35.832Z,-2.00
2023-01-28T15:47:27.029Z,-2.00
2023-01-28T15:52:11.403Z,-2.00
2023-01-28T15:57:32.185Z,-2.10
2023-01-28T16:02:23.206Z,-2.10
2023-01-28T16:07:08.147Z,-2.10
2023-01-28T16:12:11.884Z,-2.10
2023-01-28T16:38:40.903Z,-2.30
2023-01-28T16:43:28.239Z,-2.10
2023-01-28T16:48:25.231Z,-2.10
2023-01-28T16:53:29.622Z,-2.10
2023-01-28T16:58:37.297Z,-2.10
2023-01-28T17:03:40.381Z,-2.20
2023-01-28T17:08:33.653Z,-2.10
2023-01-28T17:13:18.465Z,-2.20
2023-01-28T17:18:18.700Z,-2.10
2023-01-28T17:23:28.244Z,-2.20
2023-01-28T17:44:47.231Z,-2.20
2023-01-28T17:55:11.573Z,-2.30
2023-01-28T18:00:14.952Z,-2.30
2023-01-28T18:04:59.538Z,-2.30
2023-01-28T18:09:50.315Z,-2.30
2023-01-28T18:14:39.276Z,-2.40
2023-01-28T18:19:24.599Z,-2.40
2023-01-28T18:24:11.713Z,-2.40
2023-01-28T18:29:00.008Z,-2.50
2023-01-28T18:33:51.119Z,-2.40
2023-01-28T18:38:36.855Z,-2.50
2023-01-28T18:43:29.150Z,-2.50
2023-01-28T18:48:42.444Z,-2.40
2023-01-28T18:54:02.279Z,-2.40
2023-01-28T18:58:56.805Z,-2.50
2023-01-28T19:03:44.298Z,-2.40
2023-01-28T19:08:27.995Z,-2.40
2023-01-28T19:13:16.492Z,-2.50
2023-01-28T19:18:04.467Z,-2.40
2023-01-28T19:23:04.924Z,-2.50
2023-01-28T19:27:55.429Z,-2.40
2023-01-28T19:32:46.928Z,-2.50
2023-01-28T19:37:32.677Z,-2.40
2023-01-28T19:42:21.455Z,-2.40
2023-01-28T19:47:21.907Z,-2.40
2023-01-28T19:52:13.739Z,-2.50
2023-01-28T19:57:01.408Z,-2.70
2023-01-28T20:01:48.846Z,-2.80
2023-01-28T20:06:39.923Z,-2.70
